Time;durP1;ratioP1;P1;durP2;ratioP2;P2;SDS_P1;SDS_P2;PMS_P1;PMS_P2;Temp;Humidity;BMP_temperature;BMP_pressure;BME280_temperature;BME280_humidity;BME280_pressure;Samples;Min_cycle;Max_cycle;Signal;HPM_P1;HPM_P2
2021/08/07 00:00:44;;;;;;;6.90;6.60;;;17.30;99.90;;;;;;5031305;28;20214;-68
2021/08/07 00:03:10;;;;;;;6.90;6.60;;;17.30;99.90;;;;;;5031924;28;20190;-68
2021/08/07 00:05:35;;;;;;;7.10;6.53;;;17.30;99.90;;;;;;5030450;28;20175;-68
2021/08/07 00:08:01;;;;;;;8.50;8.00;;;17.20;99.90;;;;;;5031450;28;20175;-68
2021/08/07 00:10:27;;;;;;;6.53;6.13;;;17.20;99.90;;;;;;5031596;28;20286;-68
2021/08/07 00:12:52;;;;;;;6.70;6.33;;;17.20;99.90;;;;;;5030318;28;20229;-68
2021/08/07 00:15:18;;;;;;;6.80;6.30;;;17.20;99.90;;;;;;5030386;28;20179;-68
2021/08/07 00:17:44;;;;;;;7.40;7.00;;;17.20;99.90;;;;;;5031552;28;20194;-68
2021/08/07 00:20:10;;;;;;;7.23;6.63;;;17.20;99.90;;;;;;5031222;28;20195;-68
2021/08/07 00:22:36;;;;;;;6.90;6.40;;;17.20;99.90;;;;;;5031329;28;20183;-68
2021/08/07 00:25:02;;;;;;;5.97;5.67;;;17.10;99.90;;;;;;5031345;28;20183;-68
2021/08/07 00:27:28;;;;;;;6.63;6.13;;;17.10;99.90;;;;;;5030424;28;20179;-68
2021/08/07 00:29:54;;;;;;;6.73;6.30;;;17.10;99.90;;;;;;5031004;28;20599;-68
2021/08/07 00:32:19;;;;;;;6.83;6.43;;;17.00;99.90;;;;;;5030102;28;20218;-68
2021/08/07 00:34:45;;;;;;;7.10;6.70;;;17.00;99.90;;;;;;5031110;28;20187;-68
2021/08/07 00:37:10;;;;;;;6.43;6.03;;;17.10;99.90;;;;;;5031528;28;20171;-68
2021/08/07 00:39:36;;;;;;;6.53;6.03;;;17.10;99.90;;;;;;5031066;28;20203;-68
2021/08/07 00:42:02;;;;;;;6.20;5.70;;;17.00;99.90;;;;;;5031064;28;20600;-68
2021/08/07 00:44:27;;;;;;;5.90;5.60;;;16.90;99.90;;;;;;5030479;28;20214;-68
2021/08/07 00:46:53;;;;;;;5.83;5.53;;;17.00;99.90;;;;;;5031241;28;20195;-68
2021/08/07 00:49:19;;;;;;;6.43;6.03;;;17.00;99.90;;;;;;5029755;28;20314;-68
2021/08/07 00:51:45;;;;;;;6.10;5.70;;;16.90;99.90;;;;;;5031182;28;20210;-68
2021/08/07 00:54:12;;;;;;;6.10;5.70;;;17.00;99.90;;;;;;5031439;28;20168;-68
2021/08/07 00:56:38;;;;;;;5.70;5.40;;;17.00;99.90;;;;;;5030980;28;20637;-68
2021/08/07 00:59:03;;;;;;;5.90;5.60;;;17.00;99.90;;;;;;5030002;28;20222;-68
2021/08/07 01:01:36;;;;;;;6.30;5.80;;;17.10;99.90;;;;;;5029510;28;20179;-68
2021/08/07 01:04:07;;;;;;;6.90;6.50;;;17.10;99.90;;;;;;5029862;28;20566;-68
2021/08/07 01:06:53;;;;;;;6.77;6.40;;;17.10;99.90;;;;;;5029711;28;20180;-68
2021/08/07 01:09:26;;;;;;;6.73;6.43;;;17.00;99.90;;;;;;5030937;28;20256;-68
2021/08/07 01:11:55;;;;;;;5.70;5.40;;;17.00;99.90;;;;;;5011422;28;20316;-68
2021/08/07 01:14:31;;;;;;;7.07;6.63;;;16.90;99.90;;;;;;5011393;28;20548;-68
2021/08/07 01:16:56;;;;;;;6.30;6.00;;;16.70;99.90;;;;;;5011478;28;20180;-68
2021/08/07 01:19:28;;;;;;;6.47;6.17;;;16.60;99.90;;;;;;5009778;28;20291;-68
2021/08/07 01:21:58;;;;;;;6.03;5.73;;;16.60;99.90;;;;;;5033146;28;20183;-68
2021/08/07 01:24:48;;;;;;;7.17;6.50;;;16.50;99.90;;;;;;5034607;28;20183;-68
2021/08/07 01:27:35;;;;;;;5.87;5.57;;;16.50;99.90;;;;;;5034752;28;20183;-68
2021/08/07 01:30:01;;;;;;;7.23;6.63;;;16.50;99.90;;;;;;5034073;28;20203;-68
2021/08/07 01:32:30;;;;;;;6.27;5.80;;;16.50;99.90;;;;;;5033478;28;20567;-68
2021/08/07 01:34:58;;;;;;;8.20;6.47;;;16.50;99.90;;;;;;5034256;28;20659;-68
2021/08/07 01:37:24;;;;;;;6.20;5.80;;;16.40;99.90;;;;;;5034598;28;20171;-68
2021/08/07 01:39:53;;;;;;;6.50;6.20;;;16.50;99.90;;;;;;5032857;28;20207;-68
2021/08/07 01:42:19;;;;;;;6.77;6.47;;;16.50;99.90;;;;;;5034586;28;20792;-68
2021/08/07 01:44:45;;;;;;;6.13;5.63;;;16.50;99.90;;;;;;5034146;28;20184;-68
2021/08/07 01:47:38;;;;;;;6.40;6.10;;;16.30;99.90;;;;;;5032850;28;20175;-68
2021/08/07 01:50:18;;;;;;;6.63;6.33;;;16.30;99.90;;;;;;5033653;28;20218;-68
2021/08/07 01:52:46;;;;;;;5.50;5.30;;;16.30;99.90;;;;;;5033895;28;20569;-68
2021/08/07 01:55:18;;;;;;;6.93;6.53;;;16.30;99.90;;;;;;5033007;28;20171;-68
2021/08/07 01:58:08;;;;;;;6.03;5.73;;;16.30;99.90;;;;;;5032856;28;20184;-68
2021/08/07 02:00:36;;;;;;;5.80;5.50;;;16.30;99.90;;;;;;5033133;28;20212;-68
2021/08/07 02:03:02;;;;;;;6.50;6.10;;;16.30;99.90;;;;;;5034060;28;20548;-68
2021/08/07 02:05:28;;;;;;;6.37;6.07;;;16.30;99.90;;;;;;5033927;28;20171;-68
2021/08/07 02:07:54;;;;;;;6.70;6.30;;;16.30;99.90;;;;;;5032914;28;20175;-68
2021/08/07 02:10:20;;;;;;;6.90;6.50;;;16.20;99.90;;;;;;5032009;28;20211;-68
2021/08/07 02:12:47;;;;;;;7.30;6.70;;;16.20;99.90;;;;;;5034038;28;20203;-68
2021/08/07 02:15:16;;;;;;;6.80;6.30;;;16.10;99.90;;;;;;5033670;28;20259;-68
2021/08/07 02:17:43;;;;;;;6.37;5.97;;;16.10;99.90;;;;;;5033915;28;20262;-68
2021/08/07 02:20:13;;;;;;;6.80;6.30;;;16.00;99.90;;;;;;5031855;28;20253;-68
2021/08/07 02:22:39;;;;;;;7.10;6.50;;;15.90;99.90;;;;;;5032500;28;20179;-68
2021/08/07 02:25:05;;;;;;;6.60;6.27;;;15.90;99.90;;;;;;5033422;28;20195;-68
2021/08/07 02:27:31;;;;;;;6.80;6.40;;;15.90;99.90;;;;;;5033791;28;20175;-68
2021/08/07 02:29:57;;;;;;;6.67;6.27;;;15.90;99.90;;;;;;5033050;28;20210;-68
2021/08/07 02:32:22;;;;;;;5.23;5.03;;;15.80;99.90;;;;;;5032935;28;20230;-68
2021/08/07 02:34:48;;;;;;;5.93;5.47;;;15.80;99.90;;;;;;5033349;28;20176;-68
2021/08/07 02:37:14;;;;;;;6.60;5.93;;;15.70;99.90;;;;;;5033240;28;20262;-68
2021/08/07 02:39:41;;;;;;;7.33;6.70;;;15.60;99.90;;;;;;5031802;28;20287;-68
2021/08/07 02:42:07;;;;;;;6.73;6.33;;;15.60;99.90;;;;;;5032875;28;20187;-68
2021/08/07 02:44:33;;;;;;;6.47;5.97;;;15.60;99.90;;;;;;5033425;28;20515;-68
2021/08/07 02:46:58;;;;;;;6.07;5.77;;;15.60;99.90;;;;;;5032998;28;20547;-68
2021/08/07 02:49:24;;;;;;;6.77;6.30;;;15.50;99.90;;;;;;5032613;28;20211;-68
2021/08/07 02:51:51;;;;;;;7.20;6.50;;;15.40;99.90;;;;;;5033153;28;20272;-68
2021/08/07 02:54:17;;;;;;;6.57;6.17;;;15.40;99.90;;;;;;5032908;28;20175;-68
2021/08/07 02:56:43;;;;;;;8.13;6.20;;;15.40;99.90;;;;;;5032952;28;20179;-68
2021/08/07 02:59:09;;;;;;;6.83;6.20;;;15.40;99.90;;;;;;5031490;28;20210;-68
2021/08/07 03:01:35;;;;;;;7.07;6.57;;;15.30;99.90;;;;;;5031347;28;20804;-68
2021/08/07 03:04:00;;;;;;;6.60;6.23;;;15.10;99.90;;;;;;5031972;28;20592;-68
2021/08/07 03:06:26;;;;;;;7.20;6.70;;;15.10;99.90;;;;;;5032842;28;20258;-68
2021/08/07 03:08:52;;;;;;;7.27;6.60;;;15.00;99.90;;;;;;5031299;28;20286;-68
2021/08/07 03:11:18;;;;;;;7.20;6.70;;;15.00;99.90;;;;;;5032460;28;20206;-68
2021/08/07 03:13:44;;;;;;;7.00;6.50;;;15.00;99.90;;;;;;5032837;28;20199;-68
2021/08/07 03:16:09;;;;;;;7.33;6.83;;;14.90;99.90;;;;;;5031327;28;20266;-68
2021/08/07 03:18:35;;;;;;;6.97;6.47;;;14.90;99.90;;;;;;5030916;28;20179;-68
2021/08/07 03:21:00;;;;;;;7.93;6.93;;;14.80;99.90;;;;;;5030978;28;20191;-68
2021/08/07 03:23:26;;;;;;;7.40;6.80;;;14.80;99.90;;;;;;5031171;28;20190;-68
2021/08/07 03:25:52;;;;;;;6.67;6.37;;;14.80;99.90;;;;;;5033089;28;20655;-68
2021/08/07 03:28:17;;;;;;;7.77;7.03;;;14.70;99.90;;;;;;5032326;28;20182;-68
2021/08/07 03:30:43;;;;;;;7.00;6.40;;;14.70;99.90;;;;;;5031974;28;20702;-68
2021/08/07 03:33:08;;;;;;;6.50;6.13;;;14.70;99.90;;;;;;5032209;28;20245;-68
2021/08/07 03:35:34;;;;;;;6.90;6.50;;;14.60;99.90;;;;;;5030556;28;20179;-68
2021/08/07 03:38:00;;;;;;;6.90;6.40;;;14.60;99.90;;;;;;5030333;28;20588;-68
2021/08/07 03:40:25;;;;;;;7.40;6.90;;;14.60;99.90;;;;;;5031299;28;20209;-69
2021/08/07 03:42:51;;;;;;;7.03;6.63;;;14.60;99.90;;;;;;5032950;28;20214;-70
2021/08/07 03:45:17;;;;;;;6.70;6.30;;;14.70;99.90;;;;;;5034020;28;20575;-75
2021/08/07 03:47:48;;;;;;;6.83;6.43;;;14.70;99.90;;;;;;5032304;28;20188;-70
2021/08/07 03:50:14;;;;;;;7.00;6.50;;;14.70;99.90;;;;;;5033962;28;20215;-70
2021/08/07 03:52:40;;;;;;;7.77;7.17;;;14.70;99.90;;;;;;5033579;28;20237;-68
2021/08/07 03:55:06;;;;;;;6.80;6.40;;;14.80;99.90;;;;;;5032483;28;20176;-71
2021/08/07 03:57:33;;;;;;;7.80;7.30;;;14.80;99.90;;;;;;5033398;28;20184;-69
2021/08/07 03:59:58;;;;;;;7.00;6.50;;;14.80;99.90;;;;;;5032288;28;20570;-68
2021/08/07 04:02:24;;;;;;;6.63;6.23;;;14.90;99.90;;;;;;5031013;28;20183;-69
2021/08/07 04:04:49;;;;;;;7.30;6.80;;;14.90;99.90;;;;;;5031407;28;20649;-69
2021/08/07 04:07:15;;;;;;;6.77;6.37;;;15.00;99.90;;;;;;5030314;28;20218;-66
2021/08/07 04:09:41;;;;;;;6.93;6.53;;;15.00;99.90;;;;;;5030283;28;20235;-67
2021/08/07 04:12:06;;;;;;;6.50;6.20;;;15.10;99.90;;;;;;5030163;28;20298;-66
2021/08/07 04:14:35;;;;;;;6.70;6.30;;;15.10;99.90;;;;;;5031759;28;20172;-69
2021/08/07 04:17:01;;;;;;;7.43;6.90;;;15.10;99.90;;;;;;5031401;28;20183;-69
2021/08/07 04:19:27;;;;;;;6.63;6.20;;;15.10;99.90;;;;;;5031489;28;20609;-66
2021/08/07 04:21:52;;;;;;;6.63;6.23;;;15.10;99.90;;;;;;5031437;28;20628;-67
2021/08/07 04:24:18;;;;;;;6.70;6.30;;;15.30;99.90;;;;;;5031569;28;20180;-66
2021/08/07 04:26:43;;;;;;;6.57;6.17;;;15.20;99.90;;;;;;5031286;28;20222;-66
2021/08/07 04:29:09;;;;;;;6.10;5.80;;;15.30;99.90;;;;;;5031341;28;20221;-67
2021/08/07 04:31:35;;;;;;;6.63;6.17;;;15.30;99.90;;;;;;5031067;28;20207;-67
2021/08/07 04:34:00;;;;;;;7.07;6.57;;;15.30;99.90;;;;;;5029616;28;20198;-67
2021/08/07 04:36:26;;;;;;;6.70;6.30;;;15.40;99.90;;;;;;5030055;28;20279;-67
2021/08/07 04:38:51;;;;;;;7.20;6.53;;;15.40;99.90;;;;;;5031394;28;20521;-70
2021/08/07 04:41:17;;;;;;;6.73;6.23;;;15.50;99.90;;;;;;5029618;28;20233;-69
2021/08/07 04:43:42;;;;;;;7.07;6.20;;;15.50;99.90;;;;;;5031498;28;20183;-69
2021/08/07 04:46:08;;;;;;;6.03;5.63;;;15.50;99.90;;;;;;5029787;28;20616;-68
2021/08/07 04:48:34;;;;;;;6.50;6.00;;;15.60;99.90;;;;;;5031287;28;20175;-69
2021/08/07 04:50:59;;;;;;;6.77;6.30;;;15.70;99.90;;;;;;5030678;28;20200;-69
2021/08/07 04:53:25;;;;;;;6.87;6.23;;;15.70;99.90;;;;;;5029946;28;20237;-70
2021/08/07 04:55:50;;;;;;;6.70;6.20;;;15.70;99.90;;;;;;5034116;28;20207;-68
2021/08/07 04:58:16;;;;;;;6.20;5.80;;;15.70;99.90;;;;;;5035300;28;20645;-69
2021/08/07 05:00:42;;;;;;;6.10;5.80;;;15.80;99.90;;;;;;5034550;28;20274;-67
2021/08/07 05:03:07;;;;;;;6.33;5.90;;;15.80;99.90;;;;;;5034922;28;20611;-69
2021/08/07 05:05:33;;;;;;;6.57;6.20;;;15.90;99.90;;;;;;5033954;28;20540;-69
2021/08/07 05:07:59;;;;;;;6.70;6.30;;;15.90;99.90;;;;;;5035280;28;20212;-69
2021/08/07 05:10:24;;;;;;;6.30;5.83;;;16.00;99.90;;;;;;5034751;28;20207;-69
2021/08/07 05:12:50;;;;;;;7.90;7.40;;;16.00;99.90;;;;;;5034548;28;20641;-70
2021/08/07 05:15:16;;;;;;;6.50;6.00;;;16.10;99.90;;;;;;5034975;28;20229;-69
2021/08/07 05:17:41;;;;;;;6.33;5.87;;;16.20;99.90;;;;;;5034894;28;20199;-69
2021/08/07 05:20:08;;;;;;;6.43;5.97;;;16.30;99.90;;;;;;5034538;28;20260;-67
2021/08/07 05:22:33;;;;;;;7.37;6.97;;;16.30;99.90;;;;;;5034935;28;20186;-68
2021/08/07 05:24:59;;;;;;;6.17;5.87;;;16.40;99.90;;;;;;5033322;28;20262;-69
2021/08/07 05:27:24;;;;;;;7.80;7.30;;;16.50;99.90;;;;;;5034796;28;20517;-67
2021/08/07 05:29:50;;;;;;;6.00;5.70;;;16.60;99.90;;;;;;5032957;28;20215;-67
2021/08/07 05:32:16;;;;;;;6.80;6.40;;;16.60;99.90;;;;;;5034567;28;20210;-66
2021/08/07 05:34:41;;;;;;;6.43;6.13;;;16.60;99.90;;;;;;5033591;28;20187;-67
2021/08/07 05:37:07;;;;;;;6.40;5.90;;;16.70;99.90;;;;;;5034286;28;20676;-67
2021/08/07 05:39:32;;;;;;;6.17;5.67;;;16.70;99.90;;;;;;5034371;28;20199;-70
2021/08/07 05:41:58;;;;;;;5.80;5.50;;;16.80;99.90;;;;;;5033167;28;20387;-69
2021/08/07 05:44:24;;;;;;;6.43;6.03;;;16.80;99.90;;;;;;5033972;28;20222;-69
2021/08/07 05:46:49;;;;;;;6.40;5.90;;;16.90;99.90;;;;;;5033301;28;20271;-69
2021/08/07 05:49:15;;;;;;;6.93;6.43;;;16.90;99.90;;;;;;5032663;28;20684;-66
2021/08/07 05:51:40;;;;;;;7.27;6.67;;;17.00;99.90;;;;;;5034196;28;20282;-69
2021/08/07 05:54:06;;;;;;;5.87;5.37;;;17.10;99.90;;;;;;5034270;28;20607;-67
2021/08/07 05:56:32;;;;;;;5.63;5.33;;;17.20;99.90;;;;;;5034405;28;20540;-67
2021/08/07 05:58:58;;;;;;;5.90;5.50;;;17.30;99.90;;;;;;5033809;28;20211;-67
2021/08/07 06:01:24;;;;;;;6.13;5.60;;;17.40;99.90;;;;;;5034108;28;20199;-67
2021/08/07 06:03:49;;;;;;;6.90;6.50;;;17.50;99.90;;;;;;5033759;28;20187;-67
2021/08/07 06:06:15;;;;;;;8.67;8.17;;;17.50;99.90;;;;;;5033379;28;20175;-66
2021/08/07 06:08:41;;;;;;;6.23;5.73;;;17.60;99.90;;;;;;5033760;28;20203;-66
2021/08/07 06:11:06;;;;;;;6.37;5.93;;;17.60;99.90;;;;;;5033584;28;20195;-67
2021/08/07 06:13:32;;;;;;;7.20;6.70;;;17.60;99.90;;;;;;5033946;28;20198;-67
2021/08/07 06:15:58;;;;;;;5.83;5.43;;;17.60;99.90;;;;;;5032652;28;20552;-66
2021/08/07 06:18:23;;;;;;;6.17;5.67;;;17.60;99.90;;;;;;5032243;28;20245;-67
2021/08/07 06:20:49;;;;;;;6.50;6.00;;;17.70;99.90;;;;;;5032885;28;20198;-69
2021/08/07 06:23:16;;;;;;;6.60;5.90;;;17.80;99.90;;;;;;5033487;28;20542;-66
2021/08/07 06:25:42;;;;;;;5.47;5.20;;;17.80;99.90;;;;;;5031248;28;20191;-67
2021/08/07 06:28:08;;;;;;;5.80;5.50;;;17.80;99.90;;;;;;5033096;28;20186;-66
2021/08/07 06:30:33;;;;;;;6.20;5.80;;;18.00;99.90;;;;;;5033441;28;20202;-66
2021/08/07 06:32:59;;;;;;;6.20;5.77;;;18.10;99.90;;;;;;5032410;28;20219;-66
2021/08/07 06:35:25;;;;;;;6.67;6.07;;;18.20;99.90;;;;;;5030810;28;20183;-67
2021/08/07 06:37:51;;;;;;;5.60;5.30;;;18.30;99.90;;;;;;5032258;28;20645;-69
2021/08/07 06:40:18;;;;;;;6.10;5.67;;;18.30;99.90;;;;;;5031365;28;20666;-70
2021/08/07 06:42:44;;;;;;;6.83;6.27;;;18.40;99.90;;;;;;5032077;28;20286;-70
2021/08/07 06:45:10;;;;;;;5.90;5.47;;;18.50;99.90;;;;;;5032778;28;20195;-66
2021/08/07 06:47:36;;;;;;;6.13;5.67;;;18.50;99.90;;;;;;5031047;28;20176;-66
2021/08/07 06:50:02;;;;;;;5.80;5.40;;;18.50;99.90;;;;;;5031316;28;20215;-67
2021/08/07 06:52:28;;;;;;;7.87;5.40;;;18.50;99.90;;;;;;5032723;28;20265;-66
2021/08/07 06:54:53;;;;;;;5.50;5.10;;;18.50;99.90;;;;;;5033000;28;20645;-67
2021/08/07 06:57:20;;;;;;;5.80;5.27;;;18.60;99.90;;;;;;5031329;28;20216;-67
2021/08/07 06:59:46;;;;;;;6.03;5.73;;;18.60;99.90;;;;;;5032789;28;20191;-66
2021/08/07 07:02:12;;;;;;;6.57;6.07;;;18.60;99.90;;;;;;5032408;28;20695;-65
2021/08/07 07:04:38;;;;;;;6.30;5.50;;;18.70;99.90;;;;;;5033014;28;20190;-68
2021/08/07 07:07:04;;;;;;;6.17;5.63;;;18.70;99.90;;;;;;5031157;28;20269;-67
2021/08/07 07:09:31;;;;;;;7.03;6.53;;;18.80;99.90;;;;;;5032540;28;20242;-67
2021/08/07 07:11:56;;;;;;;5.67;5.37;;;19.00;99.90;;;;;;5032983;28;20677;-66
2021/08/07 07:14:22;;;;;;;6.57;6.17;;;19.20;99.90;;;;;;5032149;28;20190;-66
2021/08/07 07:16:48;;;;;;;5.57;5.30;;;19.30;99.90;;;;;;5032267;28;20175;-67
2021/08/07 07:19:14;;;;;;;6.53;5.90;;;19.60;99.90;;;;;;5031457;28;20211;-67
2021/08/07 07:21:41;;;;;;;6.60;6.10;;;19.80;99.90;;;;;;5032542;28;20176;-67
2021/08/07 07:24:06;;;;;;;6.37;5.97;;;20.00;99.90;;;;;;5032111;28;20195;-67
2021/08/07 07:26:32;;;;;;;6.57;6.17;;;20.30;99.90;;;;;;5032461;28;20321;-67
2021/08/07 07:28:58;;;;;;;6.70;5.80;;;20.70;99.90;;;;;;5032092;28;20576;-66
2021/08/07 07:31:24;;;;;;;6.10;5.60;;;21.10;99.90;;;;;;5031942;28;20695;-67
2021/08/07 07:33:50;;;;;;;5.33;4.93;;;21.40;99.90;;;;;;5032208;28;20184;-67
2021/08/07 07:36:16;;;;;;;9.63;5.03;;;21.50;99.90;;;;;;5030912;28;20263;-68
2021/08/07 07:38:41;;;;;;;5.60;5.20;;;21.70;99.90;;;;;;5031797;28;20203;-67
2021/08/07 07:41:07;;;;;;;5.23;4.73;;;21.70;99.90;;;;;;5031568;28;20608;-67
2021/08/07 07:43:33;;;;;;;4.90;4.50;;;21.90;99.90;;;;;;5031897;28;20499;-67
2021/08/07 07:45:58;;;;;;;5.22;4.85;;;22.00;99.90;;;;;;5031975;28;20597;-67
2021/08/07 07:48:24;;;;;;;4.80;4.50;;;22.30;99.90;;;;;;5031833;28;20183;-67
2021/08/07 07:50:51;;;;;;;5.00;4.55;;;22.40;99.90;;;;;;5030828;28;20195;-67
2021/08/07 07:53:17;;;;;;;4.97;4.67;;;22.20;99.90;;;;;;5030578;28;20176;-67
2021/08/07 07:55:43;;;;;;;5.10;4.80;;;22.10;99.90;;;;;;5031984;28;20645;-66
2021/08/07 07:58:08;;;;;;;5.30;4.90;;;22.10;99.90;;;;;;5031873;28;20539;-67
2021/08/07 08:00:34;;;;;;;5.43;4.93;;;22.20;99.90;;;;;;5031605;28;20206;-66
2021/08/07 08:03:00;;;;;;;4.65;4.43;;;22.30;99.90;;;;;;5030477;28;20278;-68
2021/08/07 08:05:25;;;;;;;4.93;4.60;;;22.20;99.90;;;;;;5029735;28;20180;-67
2021/08/07 08:07:51;;;;;;;5.50;5.00;;;22.20;99.90;;;;;;5031955;28;20198;-67
2021/08/07 08:10:18;;;;;;;6.13;4.53;;;22.30;99.90;;;;;;5031188;28;20206;-67
2021/08/07 08:12:44;;;;;;;5.57;5.10;;;22.30;99.90;;;;;;5030391;28;20299;-67
2021/08/07 08:15:11;;;;;;;4.97;4.68;;;22.40;99.90;;;;;;5031390;28;20171;-68
2021/08/07 08:17:38;;;;;;;4.75;4.45;;;22.50;99.90;;;;;;5031785;28;20640;-67
2021/08/07 08:20:06;;;;;;;4.35;4.05;;;22.70;99.90;;;;;;5031073;28;20198;-67
2021/08/07 08:22:32;;;;;;;5.32;4.90;;;22.90;99.90;;;;;;5031710;28;20171;-67
2021/08/07 08:24:58;;;;;;;5.18;4.80;;;23.00;99.90;;;;;;5031412;28;20183;-67
2021/08/07 08:27:23;;;;;;;5.03;4.80;;;23.10;99.90;;;;;;5031359;28;20637;-67
2021/08/07 08:29:49;;;;;;;6.57;6.07;;;23.40;99.90;;;;;;5030874;28;20191;-67
2021/08/07 08:32:16;;;;;;;5.10;4.70;;;23.80;99.90;;;;;;5030711;28;20214;-67
2021/08/07 08:34:41;;;;;;;5.40;5.00;;;24.10;99.90;;;;;;5010487;28;20172;-67
2021/08/07 08:37:07;;;;;;;4.45;4.10;;;24.30;99.90;;;;;;5017669;28;20699;-68
2021/08/07 08:39:33;;;;;;;5.82;5.45;;;24.70;99.90;;;;;;5031168;28;20290;-66
2021/08/07 08:41:59;;;;;;;5.47;4.90;;;25.00;99.90;;;;;;5029927;28;20203;-67
2021/08/07 08:44:25;;;;;;;5.75;5.32;;;25.10;99.90;;;;;;5031344;28;20233;-67
2021/08/07 08:46:52;;;;;;;5.18;4.50;;;25.20;99.90;;;;;;5031266;28;20187;-68
2021/08/07 08:49:20;;;;;;;5.22;4.85;;;24.80;99.90;;;;;;5030736;28;20207;-67
2021/08/07 08:51:47;;;;;;;5.43;5.00;;;24.30;99.90;;;;;;5030966;28;20669;-68
2021/08/07 08:54:17;;;;;;;5.63;5.15;;;23.90;99.90;;;;;;5030504;28;20638;-68
2021/08/07 08:56:49;;;;;;;5.80;5.40;;;23.70;99.90;;;;;;5029899;28;20183;-67
2021/08/07 08:59:18;;;;;;;5.72;5.20;;;23.60;99.90;;;;;;5028938;28;20282;-67
2021/08/07 09:01:43;;;;;;;5.15;4.85;;;23.80;99.90;;;;;;5031221;28;20266;-68
2021/08/07 09:04:09;;;;;;;6.35;5.72;;;24.00;99.90;;;;;;5029626;28;20827;-67
2021/08/07 09:06:35;;;;;;;4.30;4.05;;;24.10;99.90;;;;;;5031303;28;20215;-68
2021/08/07 09:09:11;;;;;;;4.72;4.32;;;24.20;99.90;;;;;;5030565;28;20207;-67
2021/08/07 09:11:52;;;;;;;4.72;4.43;;;24.20;99.90;;;;;;5029589;28;20680;-68
2021/08/07 09:14:36;;;;;;;5.53;4.82;;;24.30;99.90;;;;;;5030762;28;20187;-68
2021/08/07 09:17:06;;;;;;;5.28;4.72;;;24.10;99.90;;;;;;5029629;28;20262;-68
2021/08/07 09:19:40;;;;;;;4.70;4.30;;;24.00;99.90;;;;;;5030490;28;20191;-66
2021/08/07 09:22:12;;;;;;;4.18;3.83;;;23.90;99.90;;;;;;5031046;28;20175;-67
2021/08/07 09:24:56;;;;;;;4.70;4.50;;;23.80;99.90;;;;;;5029450;28;20238;-67
2021/08/07 09:27:43;;;;;;;4.82;4.50;;;23.80;99.90;;;;;;5029662;28;20564;-67
2021/08/07 09:30:18;;;;;;;4.80;4.40;;;23.80;99.90;;;;;;5030195;28;20207;-66
2021/08/07 09:32:54;;;;;;;6.57;4.10;;;23.60;99.90;;;;;;5030891;28;20206;-68
2021/08/07 09:35:24;;;;;;;4.43;4.03;;;23.80;99.90;;;;;;5029352;28;20175;-68
2021/08/07 09:38:24;;;;;;;4.88;4.57;;;24.30;99.90;;;;;;5030964;28;20176;-68
2021/08/07 09:40:54;;;;;;;5.40;5.00;;;25.00;99.90;;;;;;5031432;28;20176;-67
2021/08/07 09:43:45;;;;;;;5.50;5.10;;;25.50;99.90;;;;;;5034297;28;20170;-67
2021/08/07 09:46:16;;;;;;;5.00;4.72;;;25.80;99.90;;;;;;5022435;28;20279;-68
2021/08/07 09:48:48;;;;;;;5.00;4.60;;;25.90;99.90;;;;;;5039966;22;20566;-67
2021/08/07 09:51:16;;;;;;;5.03;4.72;;;26.10;99.90;;;;;;5013179;28;20635;-66
2021/08/07 09:53:42;;;;;;;5.40;5.03;;;25.90;99.90;;;;;;5014996;28;20578;-68
2021/08/07 09:56:08;;;;;;;4.65;4.25;;;26.00;99.90;;;;;;5032949;28;20207;-68
2021/08/07 09:58:34;;;;;;;5.78;5.32;;;26.20;99.90;;;;;;5034396;28;20229;-67
2021/08/07 10:01:01;;;;;;;5.22;4.70;;;26.60;99.90;;;;;;5033464;28;20278;-67
2021/08/07 10:03:29;;;;;;;4.50;4.30;;;27.10;99.90;;;;;;5034404;28;20542;-69
2021/08/07 10:05:56;;;;;;;4.43;4.13;;;27.50;99.90;;;;;;5033860;28;20172;-67
2021/08/07 10:08:22;;;;;;;4.05;3.85;;;27.20;99.90;;;;;;5033869;28;20668;-68
2021/08/07 10:10:50;;;;;;;4.28;3.97;;;27.30;99.90;;;;;;5033553;28;20622;-68
2021/08/07 10:13:17;;;;;;;4.50;4.03;;;27.30;99.90;;;;;;5033600;28;20182;-67
2021/08/07 10:15:43;;;;;;;4.03;3.83;;;27.00;99.90;;;;;;5033640;28;20175;-67
2021/08/07 10:18:09;;;;;;;5.22;4.82;;;26.70;99.90;;;;;;5033742;28;20275;-68
2021/08/07 10:20:38;;;;;;;4.50;4.20;;;26.60;99.90;;;;;;5033219;28;20296;-67
2021/08/07 10:23:04;;;;;;;4.43;4.13;;;26.90;99.90;;;;;;5033374;28;20175;-67
2021/08/07 10:25:31;;;;;;;5.15;4.60;;;27.30;99.90;;;;;;5033887;28;20179;-67
2021/08/07 10:28:02;;;;;;;3.85;3.65;;;27.30;99.90;;;;;;5033508;28;20207;-67
2021/08/07 10:30:33;;;;;;;4.57;4.15;;;27.00;99.90;;;;;;5033308;28;20199;-68
2021/08/07 10:33:00;;;;;;;4.07;3.88;;;26.50;99.90;;;;;;5031956;28;20245;-67
2021/08/07 10:35:28;;;;;;;5.97;5.40;;;26.10;99.90;;;;;;5033525;28;20601;-67
2021/08/07 10:37:56;;;;;;;5.90;5.25;;;25.60;99.90;;;;;;5033367;28;20174;-67
2021/08/07 10:40:22;;;;;;;5.15;4.75;;;25.20;99.90;;;;;;5033173;28;20195;-67
2021/08/07 10:42:50;;;;;;;6.32;4.85;;;24.90;99.90;;;;;;5033203;28;20210;-67
2021/08/07 10:45:17;;;;;;;4.43;4.22;;;24.50;99.90;;;;;;5033108;28;20199;-67
2021/08/07 10:47:45;;;;;;;4.28;3.92;;;24.10;99.90;;;;;;5033152;28;20184;-66
2021/08/07 10:50:28;;;;;;;4.57;4.28;;;23.90;99.90;;;;;;5032661;28;20556;-68
2021/08/07 10:53:02;;;;;;;4.60;4.30;;;23.50;99.90;;;;;;5032781;28;20599;-67
2021/08/07 10:55:54;;;;;;;4.60;4.30;;;23.30;99.90;;;;;;5033158;28;20167;-67
2021/08/07 10:58:36;;;;;;;4.72;4.43;;;23.30;99.90;;;;;;5013321;28;20191;-67
2021/08/07 11:01:27;;;;;;;5.20;4.72;;;23.10;99.90;;;;;;5016244;28;20167;-68
2021/08/07 11:04:01;;;;;;;4.67;4.20;;;22.80;99.90;;;;;;5032341;28;20171;-68
2021/08/07 11:06:44;;;;;;;4.70;4.40;;;22.20;99.90;;;;;;5031309;28;20317;-68
2021/08/07 11:09:17;;;;;;;5.40;4.90;;;21.60;99.90;;;;;;5031822;28;20194;-68
2021/08/07 11:11:43;;;;;;;4.80;4.60;;;21.40;99.90;;;;;;5032716;28;20257;-68
2021/08/07 11:14:21;;;;;;;4.90;4.57;;;21.30;99.90;;;;;;5031431;28;20175;-69
2021/08/07 11:17:02;;;;;;;5.00;4.73;;;21.50;99.90;;;;;;5032673;28;20234;-68
2021/08/07 11:20:00;;;;;;;4.77;4.43;;;21.80;99.90;;;;;;5031044;28;20198;-65
2021/08/07 11:22:32;;;;;;;4.33;4.13;;;22.30;99.90;;;;;;5032789;28;20514;-67
2021/08/07 11:25:24;;;;;;;4.57;4.30;;;22.90;99.90;;;;;;5032298;28;20608;-67
2021/08/07 11:27:55;;;;;;;4.45;4.25;;;23.60;99.90;;;;;;5031506;28;20198;-68
2021/08/07 11:30:26;;;;;;;4.30;4.00;;;24.20;99.90;;;;;;5031769;28;20210;-67
2021/08/07 11:33:00;;;;;;;4.68;3.90;;;24.70;99.90;;;;;;5032473;28;20281;-69
2021/08/07 11:35:38;;;;;;;4.78;4.57;;;25.10;99.90;;;;;;5031989;28;20179;-70
2021/08/07 11:40:52;;;;;;;5.13;4.82;;;26.00;99.90;;;;;;5031928;28;20386;-69
2021/08/07 11:43:23;;;;;;;4.38;4.18;;;26.40;99.90;;;;;;5032082;28;20168;-67
2021/08/07 11:45:55;;;;;;;4.05;3.80;;;26.70;99.90;;;;;;5032086;28;20580;-68
2021/08/07 11:48:35;;;;;;;4.72;4.50;;;27.20;99.90;;;;;;5032197;28;20178;-68
2021/08/07 11:51:03;;;;;;;4.88;4.50;;;27.50;99.90;;;;;;5031333;28;20214;-69
2021/08/07 11:53:29;;;;;;;4.35;4.05;;;27.30;99.90;;;;;;5032103;28;20178;-67
2021/08/07 11:56:04;;;;;;;4.43;4.18;;;27.30;99.90;;;;;;5031833;28;20187;-67
2021/08/07 11:58:31;;;;;;;4.50;4.07;;;27.60;99.90;;;;;;5031879;28;20171;-68
2021/08/07 12:01:01;;;;;;;4.25;3.92;;;27.80;99.90;;;;;;5031418;28;20196;-68
2021/08/07 12:03:27;;;;;;;4.22;3.92;;;27.70;99.90;;;;;;5030895;28;20261;-68
2021/08/07 12:05:58;;;;;;;4.53;4.22;;;27.90;99.90;;;;;;5032012;28;20167;-69
2021/08/07 12:08:25;;;;;;;6.47;4.53;;;28.00;99.90;;;;;;5031676;28;20734;-68
2021/08/07 12:11:01;;;;;;;4.32;4.03;;;28.10;99.90;;;;;;5031469;28;20196;-68
2021/08/07 12:13:37;;;;;;;5.32;4.95;;;28.00;99.90;;;;;;5031499;28;20174;-68
2021/08/07 12:16:04;;;;;;;4.53;4.28;;;28.10;99.90;;;;;;5031733;28;20253;-68
2021/08/07 12:18:42;;;;;;;4.40;4.10;;;28.00;99.90;;;;;;5031424;28;20198;-68
2021/08/07 12:21:10;;;;;;;4.60;4.13;;;27.90;99.90;;;;;;5031038;28;20168;-67
2021/08/07 12:23:48;;;;;;;5.20;4.90;;;27.90;99.90;;;;;;5031534;28;20178;-67
2021/08/07 12:26:15;;;;;;;5.28;5.07;;;27.80;99.90;;;;;;5031800;28;20163;-67
2021/08/07 12:28:42;;;;;;;4.20;4.00;;;27.50;99.90;;;;;;5031250;28;20254;-67
2021/08/07 12:31:08;;;;;;;4.30;4.00;;;27.70;99.90;;;;;;5031001;28;20178;-67
2021/08/07 12:33:37;;;;;;;4.38;4.07;;;27.60;99.90;;;;;;5031425;28;20249;-67
2021/08/07 12:36:12;;;;;;;4.75;4.45;;;27.80;99.90;;;;;;5031582;28;20163;-68
2021/08/07 12:38:44;;;;;;;4.20;3.80;;;27.50;99.90;;;;;;5031331;28;20181;-67
2021/08/07 12:41:11;;;;;;;3.85;3.65;;;27.10;99.90;;;;;;5030845;28;20170;-67
2021/08/07 12:43:37;;;;;;;4.45;4.13;;;27.10;99.90;;;;;;5031451;28;20182;-68
2021/08/07 12:46:07;;;;;;;3.92;3.72;;;27.20;99.90;;;;;;5031507;28;20688;-67
2021/08/07 12:48:52;;;;;;;5.28;4.55;;;27.80;99.90;;;;;;5031483;28;20205;-67
2021/08/07 12:51:24;;;;;;;4.57;4.22;;;28.10;99.90;;;;;;5029921;28;20285;-68
2021/08/07 12:53:50;;;;;;;3.53;3.33;;;28.50;99.90;;;;;;5031473;28;20254;-67
2021/08/07 12:56:17;;;;;;;4.53;4.32;;;28.60;99.90;;;;;;5030939;28;20175;-68